sensor_id;sensor_type;location;lat;lon;timestamp;P1;durP1;ratioP1;P2;durP2;ratioP2
15246;SDS011;7726;48.820;9.248;2022-11-15T00:00:55;6.73;;;4.20;;
15246;SDS011;7726;48.820;9.248;2022-11-15T00:03:23;5.73;;;4.60;;
15246;SDS011;7726;48.820;9.248;2022-11-15T00:05:50;6.57;;;4.93;;
15246;SDS011;7726;48.820;9.248;2022-11-15T00:08:18;5.83;;;4.37;;
15246;SDS011;7726;48.820;9.248;2022-11-15T00:10:53;7.77;;;4.67;;
15246;SDS011;7726;48.820;9.248;2022-11-15T00:13:20;7.00;;;5.17;;
15246;SDS011;7726;48.820;9.248;2022-11-15T00:15:48;7.40;;;4.77;;
15246;SDS011;7726;48.820;9.248;2022-11-15T00:18:15;5.77;;;4.53;;
15246;SDS011;7726;48.820;9.248;2022-11-15T00:20:42;6.53;;;4.60;;
15246;SDS011;7726;48.820;9.248;2022-11-15T00:23:09;5.73;;;4.23;;
15246;SDS011;7726;48.820;9.248;2022-11-15T00:25:38;5.90;;;4.50;;
15246;SDS011;7726;48.820;9.248;2022-11-15T00:28:05;5.90;;;3.90;;
15246;SDS011;7726;48.820;9.248;2022-11-15T00:30:32;5.63;;;4.00;;
15246;SDS011;7726;48.820;9.248;2022-11-15T00:33:01;5.63;;;4.00;;
15246;SDS011;7726;48.820;9.248;2022-11-15T00:35:30;7.80;;;4.00;;
15246;SDS011;7726;48.820;9.248;2022-11-15T00:37:58;5.63;;;4.90;;
15246;SDS011;7726;48.820;9.248;2022-11-15T00:40:25;4.67;;;3.70;;
15246;SDS011;7726;48.820;9.248;2022-11-15T00:42:54;5.97;;;4.17;;
15246;SDS011;7726;48.820;9.248;2022-11-15T00:45:21;4.70;;;3.17;;
15246;SDS011;7726;48.820;9.248;2022-11-15T00:47:48;5.60;;;3.50;;
15246;SDS011;7726;48.820;9.248;2022-11-15T00:50:15;4.30;;;3.80;;
15246;SDS011;7726;48.820;9.248;2022-11-15T00:52:43;3.77;;;3.47;;
15246;SDS011;7726;48.820;9.248;2022-11-15T00:55:12;7.23;;;4.50;;
15246;SDS011;7726;48.820;9.248;2022-11-15T00:57:40;4.50;;;3.90;;
15246;SDS011;7726;48.820;9.248;2022-11-15T01:00:09;4.60;;;3.83;;
15246;SDS011;7726;48.820;9.248;2022-11-15T01:02:37;6.40;;;4.00;;
15246;SDS011;7726;48.820;9.248;2022-11-15T01:05:04;6.03;;;5.17;;
15246;SDS011;7726;48.820;9.248;2022-11-15T01:07:31;5.47;;;4.40;;
15246;SDS011;7726;48.820;9.248;2022-11-15T01:09:59;4.60;;;3.97;;
15246;SDS011;7726;48.820;9.248;2022-11-15T01:12:26;5.30;;;3.83;;
15246;SDS011;7726;48.820;9.248;2022-11-15T01:14:53;5.70;;;3.63;;
15246;SDS011;7726;48.820;9.248;2022-11-15T01:17:22;4.97;;;3.83;;
15246;SDS011;7726;48.820;9.248;2022-11-15T01:19:49;5.87;;;4.27;;
15246;SDS011;7726;48.820;9.248;2022-11-15T01:22:16;6.43;;;3.93;;
15246;SDS011;7726;48.820;9.248;2022-11-15T01:24:44;6.13;;;4.50;;
15246;SDS011;7726;48.820;9.248;2022-11-15T01:27:11;4.93;;;3.80;;
15246;SDS011;7726;48.820;9.248;2022-11-15T01:29:38;6.50;;;4.50;;
15246;SDS011;7726;48.820;9.248;2022-11-15T01:32:05;5.97;;;4.43;;
15246;SDS011;7726;48.820;9.248;2022-11-15T01:34:34;10.60;;;4.80;;
15246;SDS011;7726;48.820;9.248;2022-11-15T01:37:01;5.53;;;4.43;;
15246;SDS011;7726;48.820;9.248;2022-11-15T01:39:28;7.30;;;5.33;;
15246;SDS011;7726;48.820;9.248;2022-11-15T01:41:55;5.90;;;4.37;;
15246;SDS011;7726;48.820;9.248;2022-11-15T01:44:31;6.10;;;4.20;;
15246;SDS011;7726;48.820;9.248;2022-11-15T01:46:59;7.73;;;4.37;;
15246;SDS011;7726;48.820;9.248;2022-11-15T01:49:27;5.63;;;4.00;;
15246;SDS011;7726;48.820;9.248;2022-11-15T01:51:58;7.30;;;4.27;;
15246;SDS011;7726;48.820;9.248;2022-11-15T01:54:27;6.93;;;4.50;;
15246;SDS011;7726;48.820;9.248;2022-11-15T01:56:56;7.20;;;4.90;;
15246;SDS011;7726;48.820;9.248;2022-11-15T01:59:24;7.87;;;5.00;;
15246;SDS011;7726;48.820;9.248;2022-11-15T02:01:52;6.47;;;4.93;;
15246;SDS011;7726;48.820;9.248;2022-11-15T02:04:20;6.80;;;5.00;;
15246;SDS011;7726;48.820;9.248;2022-11-15T02:06:48;7.70;;;5.30;;
15246;SDS011;7726;48.820;9.248;2022-11-15T02:09:17;7.43;;;5.10;;
15246;SDS011;7726;48.820;9.248;2022-11-15T02:11:44;6.90;;;5.03;;
15246;SDS011;7726;48.820;9.248;2022-11-15T02:14:12;7.83;;;4.90;;
15246;SDS011;7726;48.820;9.248;2022-11-15T02:16:43;6.93;;;4.83;;
15246;SDS011;7726;48.820;9.248;2022-11-15T02:19:15;6.00;;;4.83;;
15246;SDS011;7726;48.820;9.248;2022-11-15T02:21:47;6.23;;;4.97;;
15246;SDS011;7726;48.820;9.248;2022-11-15T02:24:24;5.87;;;4.47;;
15246;SDS011;7726;48.820;9.248;2022-11-15T02:27:08;5.53;;;4.37;;
15246;SDS011;7726;48.820;9.248;2022-11-15T02:29:48;6.87;;;4.53;;
15246;SDS011;7726;48.820;9.248;2022-11-15T02:32:24;5.83;;;4.70;;
15246;SDS011;7726;48.820;9.248;2022-11-15T02:34:55;4.80;;;4.27;;
15246;SDS011;7726;48.820;9.248;2022-11-15T02:37:27;6.60;;;4.60;;
15246;SDS011;7726;48.820;9.248;2022-11-15T02:39:59;9.53;;;4.93;;
15246;SDS011;7726;48.820;9.248;2022-11-15T02:42:28;4.20;;;3.80;;
15246;SDS011;7726;48.820;9.248;2022-11-15T02:45:17;5.80;;;4.30;;
15246;SDS011;7726;48.820;9.248;2022-11-15T02:47:46;4.43;;;4.00;;
15246;SDS011;7726;48.820;9.248;2022-11-15T02:50:16;5.07;;;4.00;;
15246;SDS011;7726;48.820;9.248;2022-11-15T02:52:44;7.07;;;3.83;;
15246;SDS011;7726;48.820;9.248;2022-11-15T02:58:01;5.40;;;4.10;;
15246;SDS011;7726;48.820;9.248;2022-11-15T03:00:29;4.13;;;3.70;;
15246;SDS011;7726;48.820;9.248;2022-11-15T03:03:07;7.37;;;4.10;;
15246;SDS011;7726;48.820;9.248;2022-11-15T03:05:40;5.47;;;3.90;;
15246;SDS011;7726;48.820;9.248;2022-11-15T03:08:10;4.97;;;4.13;;
15246;SDS011;7726;48.820;9.248;2022-11-15T03:10:42;6.53;;;3.60;;
15246;SDS011;7726;48.820;9.248;2022-11-15T03:13:16;5.50;;;4.00;;
15246;SDS011;7726;48.820;9.248;2022-11-15T03:15:44;5.60;;;3.80;;
15246;SDS011;7726;48.820;9.248;2022-11-15T03:18:17;4.80;;;3.60;;
15246;SDS011;7726;48.820;9.248;2022-11-15T03:20:46;5.07;;;4.13;;
15246;SDS011;7726;48.820;9.248;2022-11-15T03:23:13;5.17;;;4.00;;
15246;SDS011;7726;48.820;9.248;2022-11-15T03:25:41;4.80;;;3.97;;
15246;SDS011;7726;48.820;9.248;2022-11-15T03:28:10;4.27;;;3.80;;
15246;SDS011;7726;48.820;9.248;2022-11-15T03:30:39;4.23;;;3.87;;
15246;SDS011;7726;48.820;9.248;2022-11-15T03:33:06;6.87;;;4.27;;
15246;SDS011;7726;48.820;9.248;2022-11-15T03:35:37;5.80;;;4.27;;
15246;SDS011;7726;48.820;9.248;2022-11-15T03:38:06;7.10;;;4.40;;
15246;SDS011;7726;48.820;9.248;2022-11-15T03:40:38;6.47;;;4.43;;
15246;SDS011;7726;48.820;9.248;2022-11-15T03:43:07;5.67;;;4.30;;
15246;SDS011;7726;48.820;9.248;2022-11-15T03:45:38;6.47;;;4.23;;
15246;SDS011;7726;48.820;9.248;2022-11-15T03:48:08;6.00;;;4.87;;
15246;SDS011;7726;48.820;9.248;2022-11-15T03:50:38;6.50;;;5.10;;
15246;SDS011;7726;48.820;9.248;2022-11-15T03:53:05;7.63;;;5.13;;
15246;SDS011;7726;48.820;9.248;2022-11-15T03:55:33;7.43;;;5.23;;
15246;SDS011;7726;48.820;9.248;2022-11-15T03:58:01;6.60;;;5.43;;
15246;SDS011;7726;48.820;9.248;2022-11-15T04:00:29;6.03;;;4.90;;
15246;SDS011;7726;48.820;9.248;2022-11-15T04:02:56;5.03;;;4.53;;
15246;SDS011;7726;48.820;9.248;2022-11-15T04:05:24;7.07;;;4.10;;
15246;SDS011;7726;48.820;9.248;2022-11-15T04:07:53;7.83;;;5.23;;
15246;SDS011;7726;48.820;9.248;2022-11-15T04:10:20;5.27;;;4.47;;
15246;SDS011;7726;48.820;9.248;2022-11-15T04:12:48;8.33;;;4.80;;
15246;SDS011;7726;48.820;9.248;2022-11-15T04:15:15;6.57;;;5.07;;
15246;SDS011;7726;48.820;9.248;2022-11-15T04:17:43;7.73;;;4.70;;
15246;SDS011;7726;48.820;9.248;2022-11-15T04:20:12;7.57;;;4.70;;
15246;SDS011;7726;48.820;9.248;2022-11-15T04:22:59;7.07;;;5.40;;
15246;SDS011;7726;48.820;9.248;2022-11-15T04:25:43;10.97;;;5.73;;
15246;SDS011;7726;48.820;9.248;2022-11-15T04:28:11;6.50;;;5.73;;
15246;SDS011;7726;48.820;9.248;2022-11-15T04:30:38;8.77;;;5.73;;
15246;SDS011;7726;48.820;9.248;2022-11-15T04:33:05;7.63;;;6.43;;
15246;SDS011;7726;48.820;9.248;2022-11-15T04:35:33;8.43;;;6.40;;
15246;SDS011;7726;48.820;9.248;2022-11-15T04:38:04;10.70;;;6.97;;
15246;SDS011;7726;48.820;9.248;2022-11-15T04:40:30;9.70;;;6.70;;
15246;SDS011;7726;48.820;9.248;2022-11-15T04:42:57;10.17;;;6.87;;
15246;SDS011;7726;48.820;9.248;2022-11-15T04:45:24;9.37;;;7.13;;
15246;SDS011;7726;48.820;9.248;2022-11-15T04:47:52;10.07;;;6.73;;
15246;SDS011;7726;48.820;9.248;2022-11-15T04:50:19;7.43;;;6.43;;
15246;SDS011;7726;48.820;9.248;2022-11-15T04:52:50;11.10;;;7.10;;
15246;SDS011;7726;48.820;9.248;2022-11-15T04:55:18;9.13;;;6.53;;
15246;SDS011;7726;48.820;9.248;2022-11-15T04:57:45;10.57;;;7.50;;
15246;SDS011;7726;48.820;9.248;2022-11-15T05:00:13;8.77;;;6.17;;
15246;SDS011;7726;48.820;9.248;2022-11-15T05:02:41;9.97;;;6.40;;
15246;SDS011;7726;48.820;9.248;2022-11-15T05:05:26;9.40;;;6.17;;
15246;SDS011;7726;48.820;9.248;2022-11-15T05:07:53;8.27;;;6.47;;
15246;SDS011;7726;48.820;9.248;2022-11-15T05:10:21;9.53;;;6.60;;
15246;SDS011;7726;48.820;9.248;2022-11-15T05:12:48;8.87;;;5.80;;
15246;SDS011;7726;48.820;9.248;2022-11-15T05:15:16;6.30;;;5.30;;
15246;SDS011;7726;48.820;9.248;2022-11-15T05:17:43;7.30;;;5.37;;
15246;SDS011;7726;48.820;9.248;2022-11-15T05:20:10;7.83;;;6.03;;
15246;SDS011;7726;48.820;9.248;2022-11-15T05:22:37;8.70;;;5.53;;
15246;SDS011;7726;48.820;9.248;2022-11-15T05:25:05;9.40;;;5.70;;
15246;SDS011;7726;48.820;9.248;2022-11-15T05:27:34;10.90;;;6.60;;
15246;SDS011;7726;48.820;9.248;2022-11-15T05:30:01;9.83;;;7.13;;
15246;SDS011;7726;48.820;9.248;2022-11-15T05:32:28;9.60;;;7.20;;
15246;SDS011;7726;48.820;9.248;2022-11-15T05:34:56;9.37;;;6.87;;
15246;SDS011;7726;48.820;9.248;2022-11-15T05:37:23;7.97;;;6.57;;
15246;SDS011;7726;48.820;9.248;2022-11-15T05:39:50;8.03;;;5.83;;
15246;SDS011;7726;48.820;9.248;2022-11-15T05:42:17;8.00;;;5.40;;
15246;SDS011;7726;48.820;9.248;2022-11-15T05:44:46;6.80;;;5.10;;
15246;SDS011;7726;48.820;9.248;2022-11-15T05:47:15;8.03;;;6.27;;
15246;SDS011;7726;48.820;9.248;2022-11-15T05:49:44;10.60;;;6.17;;
15246;SDS011;7726;48.820;9.248;2022-11-15T05:52:13;9.10;;;6.20;;
15246;SDS011;7726;48.820;9.248;2022-11-15T05:54:41;7.40;;;5.93;;
15246;SDS011;7726;48.820;9.248;2022-11-15T05:57:09;10.10;;;6.83;;
15246;SDS011;7726;48.820;9.248;2022-11-15T05:59:36;7.13;;;6.13;;
15246;SDS011;7726;48.820;9.248;2022-11-15T06:02:06;7.13;;;6.23;;
15246;SDS011;7726;48.820;9.248;2022-11-15T06:04:33;8.93;;;6.33;;
15246;SDS011;7726;48.820;9.248;2022-11-15T06:07:01;9.07;;;6.27;;
15246;SDS011;7726;48.820;9.248;2022-11-15T06:09:28;7.93;;;5.30;;
15246;SDS011;7726;48.820;9.248;2022-11-15T06:11:55;8.87;;;6.27;;
15246;SDS011;7726;48.820;9.248;2022-11-15T06:14:22;7.20;;;6.10;;
15246;SDS011;7726;48.820;9.248;2022-11-15T06:16:49;9.03;;;6.40;;
15246;SDS011;7726;48.820;9.248;2022-11-15T06:19:18;11.33;;;6.80;;
15246;SDS011;7726;48.820;9.248;2022-11-15T06:21:45;7.60;;;6.53;;
15246;SDS011;7726;48.820;9.248;2022-11-15T06:24:12;8.70;;;6.20;;
15246;SDS011;7726;48.820;9.248;2022-11-15T06:26:39;8.80;;;6.60;;
15246;SDS011;7726;48.820;9.248;2022-11-15T06:29:06;9.17;;;6.00;;
15246;SDS011;7726;48.820;9.248;2022-11-15T06:31:34;9.27;;;6.03;;
15246;SDS011;7726;48.820;9.248;2022-11-15T06:34:01;8.43;;;5.97;;
15246;SDS011;7726;48.820;9.248;2022-11-15T06:36:29;10.93;;;6.17;;
15246;SDS011;7726;48.820;9.248;2022-11-15T06:38:56;7.67;;;5.20;;
15246;SDS011;7726;48.820;9.248;2022-11-15T06:41:24;6.57;;;5.83;;
15246;SDS011;7726;48.820;9.248;2022-11-15T06:43:51;5.97;;;5.37;;
15246;SDS011;7726;48.820;9.248;2022-11-15T06:46:18;6.43;;;4.77;;
15246;SDS011;7726;48.820;9.248;2022-11-15T06:48:45;7.20;;;5.40;;
15246;SDS011;7726;48.820;9.248;2022-11-15T06:51:12;6.57;;;5.03;;
15246;SDS011;7726;48.820;9.248;2022-11-15T06:53:41;9.47;;;5.93;;
15246;SDS011;7726;48.820;9.248;2022-11-15T06:56:08;6.60;;;4.57;;
15246;SDS011;7726;48.820;9.248;2022-11-15T06:58:35;8.80;;;5.30;;
15246;SDS011;7726;48.820;9.248;2022-11-15T07:03:41;7.73;;;4.60;;
15246;SDS011;7726;48.820;9.248;2022-11-15T07:06:09;6.00;;;4.70;;
15246;SDS011;7726;48.820;9.248;2022-11-15T07:08:36;7.73;;;4.70;;
15246;SDS011;7726;48.820;9.248;2022-11-15T07:11:05;6.53;;;4.80;;
15246;SDS011;7726;48.820;9.248;2022-11-15T07:16:09;6.30;;;4.50;;
15246;SDS011;7726;48.820;9.248;2022-11-15T07:18:37;8.10;;;4.83;;
15246;SDS011;7726;48.820;9.248;2022-11-15T07:21:04;5.77;;;4.10;;
15246;SDS011;7726;48.820;9.248;2022-11-15T07:23:32;5.30;;;4.20;;
15246;SDS011;7726;48.820;9.248;2022-11-15T07:25:59;7.70;;;4.47;;
15246;SDS011;7726;48.820;9.248;2022-11-15T07:28:28;6.37;;;4.40;;
15246;SDS011;7726;48.820;9.248;2022-11-15T07:30:55;5.07;;;3.77;;
15246;SDS011;7726;48.820;9.248;2022-11-15T07:33:22;5.83;;;3.97;;
15246;SDS011;7726;48.820;9.248;2022-11-15T07:35:49;6.33;;;3.73;;
15246;SDS011;7726;48.820;9.248;2022-11-15T07:38:16;5.03;;;3.57;;
15246;SDS011;7726;48.820;9.248;2022-11-15T07:40:45;3.73;;;3.40;;
15246;SDS011;7726;48.820;9.248;2022-11-15T07:43:12;5.70;;;3.60;;
15246;SDS011;7726;48.820;9.248;2022-11-15T07:45:42;5.63;;;4.17;;
15246;SDS011;7726;48.820;9.248;2022-11-15T07:48:09;5.50;;;3.90;;
15246;SDS011;7726;48.820;9.248;2022-11-15T07:50:36;7.30;;;3.83;;
15246;SDS011;7726;48.820;9.248;2022-11-15T07:53:04;4.03;;;3.67;;
15246;SDS011;7726;48.820;9.248;2022-11-15T07:55:31;6.50;;;4.07;;
15246;SDS011;7726;48.820;9.248;2022-11-15T07:58:01;7.20;;;4.07;;
15246;SDS011;7726;48.820;9.248;2022-11-15T08:00:28;4.93;;;3.50;;
15246;SDS011;7726;48.820;9.248;2022-11-15T08:03:02;6.37;;;3.77;;
15246;SDS011;7726;48.820;9.248;2022-11-15T08:05:29;7.10;;;3.87;;
15246;SDS011;7726;48.820;9.248;2022-11-15T08:07:57;5.00;;;3.47;;
15246;SDS011;7726;48.820;9.248;2022-11-15T08:10:24;5.00;;;3.83;;
15246;SDS011;7726;48.820;9.248;2022-11-15T08:12:56;10.27;;;3.87;;
15246;SDS011;7726;48.820;9.248;2022-11-15T08:15:23;4.83;;;3.83;;
15246;SDS011;7726;48.820;9.248;2022-11-15T08:17:53;5.40;;;3.67;;
15246;SDS011;7726;48.820;9.248;2022-11-15T08:20:21;6.40;;;3.73;;
15246;SDS011;7726;48.820;9.248;2022-11-15T08:22:49;5.23;;;3.60;;
15246;SDS011;7726;48.820;9.248;2022-11-15T08:25:16;6.80;;;3.70;;
15246;SDS011;7726;48.820;9.248;2022-11-15T08:27:43;6.05;;;3.97;;
15246;SDS011;7726;48.820;9.248;2022-11-15T08:30:11;5.07;;;4.20;;
15246;SDS011;7726;48.820;9.248;2022-11-15T08:32:38;4.13;;;3.63;;
15246;SDS011;7726;48.820;9.248;2022-11-15T08:35:06;7.47;;;4.10;;
15246;SDS011;7726;48.820;9.248;2022-11-15T08:37:34;7.37;;;4.37;;
15246;SDS011;7726;48.820;9.248;2022-11-15T08:40:02;6.03;;;4.23;;
15246;SDS011;7726;48.820;9.248;2022-11-15T08:42:29;5.97;;;4.33;;
15246;SDS011;7726;48.820;9.248;2022-11-15T08:44:56;7.10;;;4.63;;
15246;SDS011;7726;48.820;9.248;2022-11-15T08:47:24;4.90;;;4.40;;
15246;SDS011;7726;48.820;9.248;2022-11-15T08:49:51;7.23;;;4.70;;
15246;SDS011;7726;48.820;9.248;2022-11-15T08:52:18;9.53;;;5.10;;
15246;SDS011;7726;48.820;9.248;2022-11-15T08:54:47;7.57;;;5.03;;
15246;SDS011;7726;48.820;9.248;2022-11-15T08:57:14;6.27;;;5.30;;
15246;SDS011;7726;48.820;9.248;2022-11-15T08:59:41;5.73;;;4.30;;
15246;SDS011;7726;48.820;9.248;2022-11-15T09:02:10;7.80;;;4.60;;
15246;SDS011;7726;48.820;9.248;2022-11-15T09:04:39;5.70;;;3.83;;
15246;SDS011;7726;48.820;9.248;2022-11-15T09:07:06;5.17;;;3.70;;
15246;SDS011;7726;48.820;9.248;2022-11-15T09:09:33;4.40;;;3.83;;
15246;SDS011;7726;48.820;9.248;2022-11-15T09:12:02;6.60;;;3.67;;
15246;SDS011;7726;48.820;9.248;2022-11-15T09:14:29;5.73;;;4.00;;
15246;SDS011;7726;48.820;9.248;2022-11-15T09:16:56;5.07;;;3.72;;
15246;SDS011;7726;48.820;9.248;2022-11-15T09:19:24;4.72;;;3.60;;
15246;SDS011;7726;48.820;9.248;2022-11-15T09:21:51;5.55;;;3.58;;
15246;SDS011;7726;48.820;9.248;2022-11-15T09:24:18;5.20;;;3.40;;
15246;SDS011;7726;48.820;9.248;2022-11-15T09:26:46;6.03;;;3.58;;
15246;SDS011;7726;48.820;9.248;2022-11-15T09:29:14;5.65;;;3.67;;
15246;SDS011;7726;48.820;9.248;2022-11-15T09:31:41;4.78;;;3.17;;
15246;SDS011;7726;48.820;9.248;2022-11-15T09:34:08;3.40;;;3.10;;
15246;SDS011;7726;48.820;9.248;2022-11-15T09:36:36;4.13;;;3.25;;
15246;SDS011;7726;48.820;9.248;2022-11-15T09:39:03;5.82;;;3.22;;
15246;SDS011;7726;48.820;9.248;2022-11-15T09:44:19;4.57;;;3.22;;
15246;SDS011;7726;48.820;9.248;2022-11-15T09:46:53;3.92;;;3.17;;
15246;SDS011;7726;48.820;9.248;2022-11-15T09:49:21;4.00;;;3.33;;
15246;SDS011;7726;48.820;9.248;2022-11-15T09:51:49;2.92;;;2.65;;
15246;SDS011;7726;48.820;9.248;2022-11-15T09:54:21;4.28;;;2.65;;
15246;SDS011;7726;48.820;9.248;2022-11-15T09:56:49;3.00;;;2.40;;
15246;SDS011;7726;48.820;9.248;2022-11-15T09:59:21;2.65;;;2.20;;
15246;SDS011;7726;48.820;9.248;2022-11-15T10:01:53;4.85;;;2.38;;
15246;SDS011;7726;48.820;9.248;2022-11-15T10:04:23;5.05;;;2.40;;
15246;SDS011;7726;48.820;9.248;2022-11-15T10:06:53;6.07;;;2.85;;
15246;SDS011;7726;48.820;9.248;2022-11-15T10:09:23;4.75;;;2.53;;
15246;SDS011;7726;48.820;9.248;2022-11-15T10:11:50;3.10;;;2.30;;
15246;SDS011;7726;48.820;9.248;2022-11-15T10:14:18;3.53;;;2.47;;
15246;SDS011;7726;48.820;9.248;2022-11-15T10:17:05;3.47;;;2.50;;
15246;SDS011;7726;48.820;9.248;2022-11-15T10:19:35;5.18;;;2.42;;
15246;SDS011;7726;48.820;9.248;2022-11-15T10:22:09;3.03;;;2.45;;
15246;SDS011;7726;48.820;9.248;2022-11-15T10:24:41;5.90;;;2.97;;
15246;SDS011;7726;48.820;9.248;2022-11-15T10:27:09;5.18;;;3.00;;
15246;SDS011;7726;48.820;9.248;2022-11-15T10:29:40;6.03;;;3.60;;
15246;SDS011;7726;48.820;9.248;2022-11-15T10:32:10;6.13;;;3.22;;
15246;SDS011;7726;48.820;9.248;2022-11-15T10:34:38;3.55;;;3.20;;
15246;SDS011;7726;48.820;9.248;2022-11-15T10:37:06;5.50;;;3.50;;
15246;SDS011;7726;48.820;9.248;2022-11-15T10:39:33;4.03;;;2.53;;
15246;SDS011;7726;48.820;9.248;2022-11-15T10:42:14;4.60;;;2.67;;
15246;SDS011;7726;48.820;9.248;2022-11-15T10:44:42;4.47;;;2.17;;
15246;SDS011;7726;48.820;9.248;2022-11-15T10:47:25;3.30;;;2.40;;
15246;SDS011;7726;48.820;9.248;2022-11-15T10:49:53;3.92;;;2.20;;
15246;SDS011;7726;48.820;9.248;2022-11-15T10:52:21;2.30;;;2.10;;
15246;SDS011;7726;48.820;9.248;2022-11-15T10:54:50;4.20;;;2.00;;
15246;SDS011;7726;48.820;9.248;2022-11-15T10:57:18;2.97;;;2.28;;
15246;SDS011;7726;48.820;9.248;2022-11-15T10:59:46;2.50;;;2.30;;
15246;SDS011;7726;48.820;9.248;2022-11-15T11:02:31;2.90;;;2.20;;
15246;SDS011;7726;48.820;9.248;2022-11-15T11:04:59;2.40;;;2.20;;
15246;SDS011;7726;48.820;9.248;2022-11-15T11:07:27;6.40;;;2.25;;
15246;SDS011;7726;48.820;9.248;2022-11-15T11:09:58;3.90;;;2.10;;
15246;SDS011;7726;48.820;9.248;2022-11-15T11:12:27;2.55;;;2.35;;
15246;SDS011;7726;48.820;9.248;2022-11-15T11:14:55;4.70;;;2.75;;
15246;SDS011;7726;48.820;9.248;2022-11-15T11:17:23;2.95;;;2.63;;
15246;SDS011;7726;48.820;9.248;2022-11-15T11:19:58;3.47;;;2.40;;
15246;SDS011;7726;48.820;9.248;2022-11-15T11:22:30;3.35;;;1.90;;
15246;SDS011;7726;48.820;9.248;2022-11-15T11:25:04;3.35;;;2.75;;
15246;SDS011;7726;48.820;9.248;2022-11-15T11:27:35;5.18;;;2.42;;
15246;SDS011;7726;48.820;9.248;2022-11-15T11:30:06;3.80;;;2.13;;
15246;SDS011;7726;48.820;9.248;2022-11-15T11:32:50;5.50;;;2.60;;
15246;SDS011;7726;48.820;9.248;2022-11-15T11:35:24;3.35;;;2.80;;
15246;SDS011;7726;48.820;9.248;2022-11-15T11:37:57;3.80;;;2.72;;
15246;SDS011;7726;48.820;9.248;2022-11-15T11:40:28;5.85;;;3.00;;
15246;SDS011;7726;48.820;9.248;2022-11-15T11:42:58;4.43;;;2.53;;
15246;SDS011;7726;48.820;9.248;2022-11-15T11:45:31;3.60;;;2.72;;
15246;SDS011;7726;48.820;9.248;2022-11-15T11:48:05;4.47;;;2.40;;
15246;SDS011;7726;48.820;9.248;2022-11-15T11:50:39;4.60;;;2.60;;
15246;SDS011;7726;48.820;9.248;2022-11-15T11:53:09;3.13;;;2.50;;
15246;SDS011;7726;48.820;9.248;2022-11-15T11:55:38;4.35;;;2.97;;
15246;SDS011;7726;48.820;9.248;2022-11-15T11:58:10;3.22;;;2.50;;
15246;SDS011;7726;48.820;9.248;2022-11-15T12:00:39;5.32;;;2.30;;
15246;SDS011;7726;48.820;9.248;2022-11-15T12:03:09;4.55;;;2.60;;
15246;SDS011;7726;48.820;9.248;2022-11-15T12:05:41;2.50;;;2.30;;
15246;SDS011;7726;48.820;9.248;2022-11-15T12:10:53;3.63;;;2.60;;
15246;SDS011;7726;48.820;9.248;2022-11-15T12:13:25;3.92;;;2.15;;
15246;SDS011;7726;48.820;9.248;2022-11-15T12:15:53;3.85;;;2.40;;
15246;SDS011;7726;48.820;9.248;2022-11-15T12:18:24;4.30;;;2.55;;
15246;SDS011;7726;48.820;9.248;2022-11-15T12:20:53;3.05;;;2.50;;
15246;SDS011;7726;48.820;9.248;2022-11-15T12:23:22;2.67;;;2.15;;
15246;SDS011;7726;48.820;9.248;2022-11-15T12:25:52;5.07;;;2.80;;
15246;SDS011;7726;48.820;9.248;2022-11-15T12:28:21;4.57;;;2.80;;
15246;SDS011;7726;48.820;9.248;2022-11-15T12:30:51;2.28;;;2.08;;
15246;SDS011;7726;48.820;9.248;2022-11-15T12:33:29;4.35;;;2.53;;
15246;SDS011;7726;48.820;9.248;2022-11-15T12:35:59;5.65;;;2.85;;
15246;SDS011;7726;48.820;9.248;2022-11-15T12:41:12;4.03;;;3.42;;
15246;SDS011;7726;48.820;9.248;2022-11-15T12:43:40;3.92;;;3.25;;
15246;SDS011;7726;48.820;9.248;2022-11-15T12:46:10;5.80;;;3.92;;
15246;SDS011;7726;48.820;9.248;2022-11-15T12:59:56;4.05;;;2.90;;
15246;SDS011;7726;48.820;9.248;2022-11-15T13:02:26;4.13;;;2.65;;
15246;SDS011;7726;48.820;9.248;2022-11-15T13:04:55;2.83;;;2.60;;
15246;SDS011;7726;48.820;9.248;2022-11-15T13:07:55;3.55;;;2.70;;
15246;SDS011;7726;48.820;9.248;2022-11-15T13:10:29;2.63;;;2.42;;
15246;SDS011;7726;48.820;9.248;2022-11-15T13:12:57;3.15;;;2.25;;
15246;SDS011;7726;48.820;9.248;2022-11-15T13:15:36;4.43;;;3.47;;
15246;SDS011;7726;48.820;9.248;2022-11-15T13:20:49;5.82;;;2.88;;
15246;SDS011;7726;48.820;9.248;2022-11-15T13:23:16;2.33;;;2.13;;
15246;SDS011;7726;48.820;9.248;2022-11-15T13:28:30;5.00;;;2.63;;
15246;SDS011;7726;48.820;9.248;2022-11-15T13:31:00;2.90;;;2.40;;
15246;SDS011;7726;48.820;9.248;2022-11-15T13:33:30;2.25;;;2.08;;
15246;SDS011;7726;48.820;9.248;2022-11-15T13:35:58;2.17;;;1.90;;
15246;SDS011;7726;48.820;9.248;2022-11-15T13:38:26;3.00;;;2.00;;
15246;SDS011;7726;48.820;9.248;2022-11-15T13:40:54;2.50;;;2.28;;
15246;SDS011;7726;48.820;9.248;2022-11-15T13:43:32;2.65;;;1.90;;
15246;SDS011;7726;48.820;9.248;2022-11-15T13:46:10;5.30;;;2.08;;
15246;SDS011;7726;48.820;9.248;2022-11-15T13:48:37;5.55;;;2.40;;
15246;SDS011;7726;48.820;9.248;2022-11-15T13:51:06;4.13;;;2.38;;
15246;SDS011;7726;48.820;9.248;2022-11-15T13:53:34;3.38;;;2.55;;
15246;SDS011;7726;48.820;9.248;2022-11-15T13:56:03;3.53;;;2.90;;
15246;SDS011;7726;48.820;9.248;2022-11-15T13:58:31;3.70;;;3.30;;
15246;SDS011;7726;48.820;9.248;2022-11-15T14:00:59;5.07;;;3.40;;
15246;SDS011;7726;48.820;9.248;2022-11-15T14:03:29;2.95;;;2.53;;
15246;SDS011;7726;48.820;9.248;2022-11-15T14:06:03;3.72;;;2.35;;
15246;SDS011;7726;48.820;9.248;2022-11-15T14:08:32;4.82;;;2.25;;
15246;SDS011;7726;48.820;9.248;2022-11-15T14:11:07;3.80;;;2.35;;
15246;SDS011;7726;48.820;9.248;2022-11-15T14:13:34;2.97;;;2.17;;
15246;SDS011;7726;48.820;9.248;2022-11-15T14:16:14;4.40;;;2.20;;
15246;SDS011;7726;48.820;9.248;2022-11-15T14:18:45;2.67;;;2.20;;
15246;SDS011;7726;48.820;9.248;2022-11-15T14:21:12;2.88;;;2.40;;
15246;SDS011;7726;48.820;9.248;2022-11-15T14:23:40;3.90;;;2.42;;
15246;SDS011;7726;48.820;9.248;2022-11-15T14:26:11;2.65;;;1.92;;
15246;SDS011;7726;48.820;9.248;2022-11-15T14:28:51;2.58;;;2.08;;
15246;SDS011;7726;48.820;9.248;2022-11-15T14:31:19;2.95;;;2.42;;
15246;SDS011;7726;48.820;9.248;2022-11-15T14:33:48;4.18;;;2.67;;
15246;SDS011;7726;48.820;9.248;2022-11-15T14:36:16;5.25;;;2.40;;
15246;SDS011;7726;48.820;9.248;2022-11-15T14:38:44;4.00;;;2.90;;
15246;SDS011;7726;48.820;9.248;2022-11-15T14:41:21;4.07;;;2.50;;
15246;SDS011;7726;48.820;9.248;2022-11-15T14:43:49;3.78;;;2.80;;
15246;SDS011;7726;48.820;9.248;2022-11-15T14:46:16;4.30;;;2.90;;
15246;SDS011;7726;48.820;9.248;2022-11-15T14:48:44;5.25;;;3.15;;
15246;SDS011;7726;48.820;9.248;2022-11-15T14:51:13;2.90;;;2.55;;
15246;SDS011;7726;48.820;9.248;2022-11-15T14:53:40;3.63;;;2.85;;
15246;SDS011;7726;48.820;9.248;2022-11-15T14:56:08;5.47;;;3.00;;
15246;SDS011;7726;48.820;9.248;2022-11-15T14:58:35;4.22;;;2.53;;
15246;SDS011;7726;48.820;9.248;2022-11-15T15:01:02;3.22;;;2.92;;
15246;SDS011;7726;48.820;9.248;2022-11-15T15:03:29;2.58;;;2.38;;
15246;SDS011;7726;48.820;9.248;2022-11-15T15:05:57;3.28;;;2.60;;
15246;SDS011;7726;48.820;9.248;2022-11-15T15:08:25;3.38;;;3.08;;
15246;SDS011;7726;48.820;9.248;2022-11-15T15:10:52;6.28;;;3.20;;
15246;SDS011;7726;48.820;9.248;2022-11-15T15:13:20;5.43;;;4.82;;
15246;SDS011;7726;48.820;9.248;2022-11-15T15:15:48;8.02;;;4.20;;
15246;SDS011;7726;48.820;9.248;2022-11-15T15:18:15;11.63;;;3.90;;
15246;SDS011;7726;48.820;9.248;2022-11-15T15:20:43;4.45;;;3.50;;
15246;SDS011;7726;48.820;9.248;2022-11-15T15:23:14;5.90;;;3.88;;
15246;SDS011;7726;48.820;9.248;2022-11-15T15:25:43;8.32;;;4.30;;
15246;SDS011;7726;48.820;9.248;2022-11-15T15:28:11;8.77;;;4.63;;
15246;SDS011;7726;48.820;9.248;2022-11-15T15:30:38;6.45;;;4.65;;
15246;SDS011;7726;48.820;9.248;2022-11-15T15:33:05;6.78;;;5.47;;
15246;SDS011;7726;48.820;9.248;2022-11-15T15:35:33;7.03;;;4.28;;
15246;SDS011;7726;48.820;9.248;2022-11-15T15:38:01;6.93;;;4.55;;
15246;SDS011;7726;48.820;9.248;2022-11-15T15:40:29;7.35;;;4.78;;
15246;SDS011;7726;48.820;9.248;2022-11-15T15:42:57;10.15;;;4.57;;
15246;SDS011;7726;48.820;9.248;2022-11-15T15:45:25;6.13;;;4.68;;